This is the latest recevied weather packets stored in our database for station/object WMKI. If no packets are shown the sender has not sent any weather packets the latest 10 day(s).
| Time | Temp. | Humidity | Pressure | Rain* | Wind** | Luminosity | Snow |
|---|---|---|---|---|---|---|---|
| 1778026245 | 23.89° C | 94% | 1009 hPa | - | - | - | - |
| 1778022643 | 23.89° C | 10% | - | - | - | - | - |
| 1778020200 | 25° C | 94% | 1008 hPa | - | - | - | - |
| 1778019059 | 25° C | 94% | 1008 hPa | - | - | - | - |
| 1778017211 | 25.56° C | 94% | 1008 hPa | - | - | - | - |
| 1778015445 | 25.56° C | 94% | 1008 hPa | - | - | - | - |
| 1778011844 | 26.67° C | 88% | 1007 hPa | - | - | - | - |
| 1778008243 | 26.67° C | 88% | 1008 hPa | - | - | - | - |
| 1778004659 | 26.67° C | 88% | 1008 hPa | - | - | - | - |
| 1778001042 | 26.67° C | 94% | 1009 hPa | - | - | - | - |
| 1777997445 | 26.67° C | 94% | 1009 hPa | - | - | - | - |
| 1777995042 | 27.78° C | 88% | 1008 hPa | - | - | - | - |
| 1777994459 | 25° C | 95% | 1010.7 hPa | - | - | - | - |
| 1777993842 | 27.78° C | 88% | 1008 hPa | - | - | - | - |
| 1777986658 | 28.89° C | 83% | 1007 hPa | - | - | - | - |
| 1777983043 | 28.89° C | 79% | 1006 hPa | - | - | - | - |
| 1777979444 | 30° C | 79% | 1006 hPa | - | - | - | - |
| 1777975845 | 30.56° C | 70% | 1005 hPa | - | - | - | - |
| 1777972254 | 31.67° C | 66% | 1005 hPa | - | - | - | - |
| 1777968643 | 31.67° C | 66% | 1006 hPa | - | - | - | - |
| 1777965040 | 31.67° C | 66% | 1007 hPa | - | - | - | - |
| 1777961444 | 31.67° C | 70% | 1008 hPa | - | - | - | - |
| 1777957854 | 30.56° C | 70% | 1009 hPa | - | - | - | - |
| 1777954242 | 30° C | 74% | 1010 hPa | - | - | - | - |
| 1777950643 | 27.78° C | 78% | 1010 hPa | - | - | - | - |
* Rain since midnight (hover to see other rain measurements)
** Current wind speed in m/s (hover to see current wind gust speed)